createdAt,value
2023-04-11T00:01:58.510Z,10.10
2023-04-11T00:04:30.083Z,10.07
2023-04-11T00:07:00.996Z,10.03
2023-04-11T00:09:31.936Z,10.00
2023-04-11T00:12:03.081Z,9.95
2023-04-11T00:14:34.587Z,9.91
2023-04-11T00:17:06.160Z,9.89
2023-04-11T00:19:37.682Z,9.87
2023-04-11T00:22:10.265Z,9.84
2023-04-11T00:24:41.179Z,9.81
2023-04-11T00:27:12.366Z,9.80
2023-04-11T00:29:43.259Z,9.81
2023-04-11T00:32:14.200Z,9.81
2023-04-11T00:34:45.105Z,9.81
2023-04-11T00:37:16.127Z,9.83
2023-04-11T00:39:50.448Z,9.85
2023-04-11T00:42:21.835Z,9.87
2023-04-11T00:44:53.256Z,9.87
2023-04-11T00:47:24.262Z,9.87
2023-04-11T00:49:55.683Z,9.86
2023-04-11T00:52:26.702Z,9.85
2023-04-11T00:54:57.845Z,9.84
2023-04-11T00:57:31.009Z,9.82
2023-04-11T01:00:04.357Z,9.79
2023-04-11T01:02:35.428Z,9.76
2023-04-11T01:05:08.053Z,9.73
2023-04-11T01:07:41.245Z,9.69
2023-04-11T01:10:13.943Z,9.65
2023-04-11T01:12:46.980Z,9.60
2023-04-11T01:15:18.131Z,9.59
2023-04-11T01:17:49.442Z,9.58
2023-04-11T01:20:21.652Z,9.58
2023-04-11T01:22:52.992Z,9.58
2023-04-11T01:25:25.691Z,9.59
2023-04-11T01:27:57.527Z,9.58
2023-04-11T01:30:28.620Z,9.55
2023-04-11T01:33:00.650Z,9.55
2023-04-11T01:35:31.910Z,9.54
2023-04-11T01:38:08.823Z,9.51
2023-04-11T01:40:41.446Z,9.46
2023-04-11T01:43:13.851Z,9.42
2023-04-11T01:45:47.656Z,9.39
2023-04-11T01:48:19.047Z,9.38
2023-04-11T01:50:51.633Z,9.38
2023-04-11T01:53:22.535Z,9.38
2023-04-11T01:55:53.467Z,9.36
2023-04-11T01:58:24.545Z,9.33
2023-04-11T02:00:55.491Z,9.31
2023-04-11T02:03:26.627Z,9.30
2023-04-11T02:05:59.127Z,9.28
2023-04-11T02:08:30.111Z,9.29
2023-04-11T02:11:01.132Z,9.30
2023-04-11T02:13:32.451Z,9.30
2023-04-11T02:16:11.554Z,9.32
2023-04-11T02:18:43.160Z,9.33
2023-04-11T02:21:14.133Z,9.33
2023-04-11T02:23:45.142Z,9.35
2023-04-11T02:26:16.762Z,9.36
2023-04-11T02:28:47.706Z,9.39
2023-04-11T02:31:18.595Z,9.40
2023-04-11T02:33:49.522Z,9.41
2023-04-11T02:36:22.192Z,9.42
2023-04-11T02:38:53.255Z,9.43
2023-04-11T02:41:24.454Z,9.44
2023-04-11T02:43:55.549Z,9.46
2023-04-11T02:46:26.635Z,9.48
2023-04-11T02:48:58.088Z,9.48
2023-04-11T02:51:29.228Z,9.49
2023-04-11T02:54:00.173Z,9.48
2023-04-11T02:56:31.801Z,9.46
2023-04-11T02:59:02.676Z,9.44
2023-04-11T03:01:34.404Z,9.41
2023-04-11T03:04:05.903Z,9.38
2023-04-11T03:06:44.549Z,9.33
2023-04-11T03:09:16.372Z,9.28
2023-04-11T03:11:47.557Z,9.23
2023-04-11T03:14:19.218Z,9.21
2023-04-11T03:16:50.206Z,9.20
2023-04-11T03:19:21.410Z,9.17
2023-04-11T03:21:52.378Z,9.16
2023-04-11T03:24:23.827Z,9.14
2023-04-11T03:26:55.151Z,9.10
2023-04-11T03:29:26.635Z,9.08
2023-04-11T03:32:07.131Z,9.04
2023-04-11T03:34:39.230Z,9.00
2023-04-11T03:37:11.314Z,8.97
2023-04-11T03:39:42.594Z,8.93
2023-04-11T03:42:13.608Z,8.92
2023-04-11T03:44:45.673Z,8.91
2023-04-11T03:47:16.615Z,8.91
2023-04-11T03:49:47.566Z,8.91
2023-04-11T03:52:19.485Z,8.89
2023-04-11T03:54:51.759Z,8.88
2023-04-11T03:57:23.119Z,8.88
2023-04-11T03:59:56.890Z,8.87
2023-04-11T04:02:28.096Z,8.86
2023-04-11T04:05:00.294Z,8.86
2023-04-11T04:07:36.684Z,8.86
2023-04-11T04:10:33.858Z,8.83
2023-04-11T04:13:05.056Z,8.81
2023-04-11T04:15:40.819Z,8.79
2023-04-11T04:18:12.579Z,8.80
2023-04-11T04:20:50.603Z,8.81
2023-04-11T04:23:23.979Z,8.84
2023-04-11T04:26:17.816Z,8.88
2023-04-11T04:28:57.581Z,9.15
2023-04-11T04:31:34.847Z,9.86
2023-04-11T04:34:10.269Z,10.64
2023-04-11T04:36:48.137Z,11.47
2023-04-11T04:39:25.586Z,12.34
2023-04-11T04:42:01.829Z,13.19
2023-04-11T04:44:38.062Z,14.05
2023-04-11T04:47:15.637Z,14.86
2023-04-11T04:49:47.590Z,15.67
2023-04-11T04:52:19.878Z,16.51
2023-04-11T04:54:50.953Z,17.32
2023-04-11T04:57:22.560Z,18.10
2023-04-11T04:59:54.128Z,18.83
2023-04-11T05:02:27.015Z,19.49
2023-04-11T05:05:04.274Z,20.04
2023-04-11T05:07:35.414Z,20.54
2023-04-11T05:10:07.182Z,21.02
2023-04-11T05:12:39.382Z,21.36
2023-04-11T05:15:13.093Z,21.54
2023-04-11T05:17:44.441Z,21.63
2023-04-11T05:20:16.351Z,21.77
2023-04-11T05:22:50.981Z,21.95
2023-04-11T05:25:22.488Z,22.22
2023-04-11T05:27:53.905Z,22.50
2023-04-11T05:30:27.496Z,22.76
2023-04-11T05:32:59.531Z,23.12
2023-04-11T05:35:31.142Z,23.50
2023-04-11T05:38:02.242Z,23.84
2023-04-11T05:40:33.329Z,24.10
2023-04-11T05:43:04.271Z,24.44
2023-04-11T05:45:35.178Z,24.60
2023-04-11T05:48:08.016Z,24.86
2023-04-11T05:50:39.152Z,25.06
2023-04-11T05:53:11.361Z,25.22
2023-04-11T05:55:42.676Z,25.24
2023-04-11T05:58:14.051Z,25.25
2023-04-11T06:00:46.271Z,25.26
2023-04-11T06:03:17.646Z,25.42
2023-04-11T06:05:48.717Z,25.61
2023-04-11T06:08:21.619Z,25.85
2023-04-11T06:10:57.235Z,26.17
2023-04-11T06:13:28.300Z,26.43
2023-04-11T06:16:07.203Z,26.43
2023-04-11T06:18:39.295Z,26.45
2023-04-11T06:21:10.579Z,26.60
2023-04-11T06:23:41.977Z,26.87
2023-04-11T06:26:12.935Z,27.11
2023-04-11T06:28:45.253Z,27.39
2023-04-11T06:31:17.209Z,27.64
2023-04-11T06:33:48.309Z,27.81
2023-04-11T06:36:19.526Z,28.11
2023-04-11T06:38:50.741Z,28.27
2023-04-11T06:41:21.724Z,28.41
2023-04-11T06:43:55.740Z,28.48
2023-04-11T06:46:27.479Z,28.45
2023-04-11T06:48:58.685Z,28.60
2023-04-11T06:51:29.679Z,28.92
2023-04-11T06:54:00.619Z,29.22
2023-04-11T06:56:35.988Z,29.34
2023-04-11T06:59:09.415Z,29.37
2023-04-11T07:01:41.206Z,29.31
2023-04-11T07:04:12.898Z,29.27
2023-04-11T07:06:58.007Z,29.45
2023-04-11T07:09:29.196Z,29.53
2023-04-11T07:12:01.517Z,29.44
2023-04-11T07:14:36.918Z,29.30
2023-04-11T07:17:08.156Z,29.38
2023-04-11T07:19:39.289Z,29.46
2023-04-11T07:22:10.647Z,29.56
2023-04-11T07:24:43.783Z,29.49
2023-04-11T07:27:17.289Z,29.44
2023-04-11T07:29:49.182Z,29.50
2023-04-11T07:32:20.725Z,29.48
2023-04-11T07:35:02.609Z,29.47
2023-04-11T07:37:34.106Z,29.55
2023-04-11T07:40:12.045Z,29.32
2023-04-11T07:42:43.482Z,29.28
2023-04-11T07:45:14.808Z,29.30
2023-04-11T07:47:55.491Z,29.26
2023-04-11T07:50:26.713Z,29.32
2023-04-11T07:52:57.688Z,29.29
2023-04-11T07:55:36.129Z,28.94
2023-04-11T07:58:08.304Z,28.58
2023-04-11T08:00:39.597Z,28.28
2023-04-11T08:03:11.951Z,27.87
2023-04-11T08:05:53.871Z,27.36
2023-04-11T08:08:26.035Z,26.63
2023-04-11T08:10:57.614Z,25.98
2023-04-11T08:13:36.716Z,25.44
2023-04-11T08:16:11.917Z,25.06
2023-04-11T08:18:43.198Z,24.71
2023-04-11T08:21:14.496Z,24.50
2023-04-11T08:23:48.491Z,24.21
2023-04-11T08:26:38.392Z,23.73
2023-04-11T08:29:21.326Z,23.25
2023-04-11T08:32:02.470Z,23.02
2023-04-11T08:34:36.699Z,22.73
2023-04-11T08:37:08.550Z,22.37
2023-04-11T08:39:40.021Z,21.96
2023-04-11T08:42:25.487Z,21.62
2023-04-11T08:44:58.852Z,21.43
2023-04-11T08:47:32.211Z,21.21
2023-04-11T08:50:10.118Z,21.15
2023-04-11T08:52:50.504Z,21.05
2023-04-11T08:55:21.744Z,20.92
2023-04-11T08:57:53.863Z,20.53
2023-04-11T09:00:29.243Z,20.35
2023-04-11T09:03:02.502Z,20.31
2023-04-11T09:05:35.333Z,20.23
2023-04-11T09:08:08.803Z,20.13
2023-04-11T09:10:41.713Z,19.94
2023-04-11T09:13:24.626Z,19.90
2023-04-11T09:16:10.007Z,19.81
2023-04-11T09:18:39.988Z,19.61
2023-04-11T09:21:13.050Z,19.54
2023-04-11T09:23:44.932Z,19.34
2023-04-11T09:26:27.126Z,19.15
2023-04-11T09:28:58.628Z,19.12
2023-04-11T09:31:44.388Z,19.10
2023-04-11T09:34:31.866Z,19.11
2023-04-11T09:37:09.104Z,19.21
2023-04-11T09:40:03.956Z,19.33
2023-04-11T09:42:42.118Z,19.31
2023-04-11T09:45:22.555Z,19.27
2023-04-11T09:47:55.851Z,19.13
2023-04-11T09:50:28.821Z,19.04
2023-04-11T09:52:59.842Z,19.03
2023-04-11T09:55:30.864Z,19.16
2023-04-11T09:58:02.363Z,19.30
2023-04-11T10:00:34.425Z,19.20
2023-04-11T10:03:05.888Z,19.05
2023-04-11T10:05:39.121Z,18.88
2023-04-11T10:08:18.802Z,18.63
2023-04-11T10:10:51.086Z,18.45
2023-04-11T10:13:43.264Z,18.19
2023-04-11T10:16:15.736Z,17.86
2023-04-11T10:19:23.756Z,17.59
2023-04-11T10:21:54.746Z,17.54
2023-04-11T10:24:26.821Z,17.45
2023-04-11T10:27:00.171Z,17.30
2023-04-11T10:29:51.678Z,17.14
2023-04-11T10:32:36.463Z,17.17
2023-04-11T10:35:29.628Z,17.14
2023-04-11T10:38:00.788Z,17.16
2023-04-11T10:40:31.835Z,17.15
2023-04-11T10:43:22.444Z,17.12
2023-04-11T10:46:20.583Z,17.22
2023-04-11T10:49:02.925Z,17.34
2023-04-11T10:51:37.315Z,17.44
2023-04-11T10:54:29.736Z,17.55
2023-04-11T10:57:01.022Z,17.67
2023-04-11T11:00:02.389Z,17.65
2023-04-11T11:02:42.612Z,17.56
2023-04-11T11:05:25.112Z,17.38
2023-04-11T11:07:56.718Z,17.24
2023-04-11T11:10:46.418Z,17.18
2023-04-11T11:13:18.125Z,17.11
2023-04-11T11:15:55.342Z,17.04
2023-04-11T11:18:28.306Z,17.02
2023-04-11T11:20:59.454Z,17.04
2023-04-11T11:23:30.986Z,17.03
2023-04-11T11:26:02.478Z,16.98
2023-04-11T11:28:33.460Z,16.97
2023-04-11T11:31:04.975Z,17.01
2023-04-11T11:33:44.747Z,16.99
2023-04-11T11:36:17.675Z,17.01
2023-04-11T11:38:48.852Z,16.97
2023-04-11T11:41:20.043Z,16.90
2023-04-11T11:43:51.214Z,16.88
2023-04-11T11:46:22.808Z,16.84
2023-04-11T11:49:05.457Z,16.79
2023-04-11T11:51:48.156Z,16.77
2023-04-11T11:54:19.161Z,16.87
2023-04-11T11:56:54.277Z,16.98
2023-04-11T11:59:28.982Z,17.05
2023-04-11T12:02:00.089Z,17.08
2023-04-11T12:04:32.490Z,17.08
2023-04-11T12:07:12.332Z,17.06
2023-04-11T12:09:43.780Z,16.99
2023-04-11T12:12:18.146Z,16.92
2023-04-11T12:14:56.629Z,16.86
2023-04-11T12:17:33.244Z,16.77
2023-04-11T12:20:07.653Z,16.69
2023-04-11T12:22:39.305Z,16.62
2023-04-11T12:25:14.768Z,16.61
2023-04-11T12:27:47.367Z,16.56
2023-04-11T12:30:18.748Z,16.52
2023-04-11T12:32:50.135Z,16.49
2023-04-11T12:39:05.335Z,16.41
2023-04-11T12:41:36.665Z,16.36
2023-04-11T12:44:07.732Z,16.33
2023-04-11T12:46:38.920Z,16.31
2023-04-11T12:49:10.043Z,16.28
2023-04-11T12:51:41.068Z,16.26
2023-04-11T12:54:13.065Z,16.30
2023-04-11T12:56:44.205Z,16.33
2023-04-11T12:59:16.975Z,16.33
2023-04-11T13:01:55.385Z,16.31
2023-04-11T13:04:29.538Z,16.26
2023-04-11T13:07:01.993Z,16.20
2023-04-11T13:09:33.456Z,16.13
2023-04-11T13:12:04.655Z,16.07
2023-04-11T13:14:38.279Z,16.04
2023-04-11T13:17:09.357Z,16.01
2023-04-11T13:19:40.501Z,15.98
2023-04-11T13:22:11.729Z,16.00
2023-04-11T13:24:43.415Z,16.01
2023-04-11T13:27:14.666Z,16.02
2023-04-11T13:29:45.823Z,16.01
2023-04-11T13:32:16.972Z,15.99
2023-04-11T13:34:53.298Z,15.99
2023-04-11T13:37:24.385Z,15.99
2023-04-11T13:39:55.525Z,16.00
2023-04-11T13:42:26.693Z,16.02
2023-04-11T13:44:57.785Z,16.06
2023-04-11T13:47:29.014Z,16.03
2023-04-11T13:50:00.214Z,15.99
2023-04-11T13:52:34.199Z,15.98
2023-04-11T13:55:07.856Z,15.96
2023-04-11T13:57:39.028Z,15.96
2023-04-11T14:00:13.227Z,15.98
2023-04-11T14:02:46.528Z,15.99
2023-04-11T14:05:17.930Z,15.97
2023-04-11T14:07:49.690Z,15.99
2023-04-11T14:10:21.314Z,16.02
2023-04-11T14:12:58.603Z,16.05
2023-04-11T14:15:31.787Z,16.07
2023-04-11T14:18:02.984Z,16.09
2023-04-11T14:20:40.696Z,16.11
2023-04-11T14:23:14.053Z,16.20
2023-04-11T14:25:45.236Z,16.27
2023-04-11T14:28:16.607Z,16.33
2023-04-11T14:30:54.396Z,16.37
2023-04-11T14:33:26.668Z,16.39
2023-04-11T14:36:21.584Z,16.42
2023-04-11T14:38:53.077Z,16.38
2023-04-11T14:41:24.588Z,16.34
2023-04-11T14:44:03.536Z,16.33
2023-04-11T14:46:35.639Z,16.29
2023-04-11T14:49:07.581Z,16.28
2023-04-11T14:51:44.187Z,16.28
2023-04-11T14:54:15.910Z,16.30
2023-04-11T14:56:49.885Z,16.28
2023-04-11T14:59:21.568Z,16.25
2023-04-11T15:01:52.577Z,16.20
2023-04-11T15:04:23.699Z,16.17
2023-04-11T15:06:54.710Z,16.12
2023-04-11T15:09:25.815Z,16.06
2023-04-11T15:11:57.154Z,15.99
2023-04-11T15:14:30.612Z,15.93
2023-04-11T15:17:01.747Z,15.85
2023-04-11T15:19:32.851Z,15.79
2023-04-11T15:22:13.214Z,15.78
2023-04-11T15:25:19.623Z,15.75
2023-04-11T15:27:54.935Z,15.73
2023-04-11T15:30:26.139Z,15.69
2023-04-11T15:32:57.185Z,15.66
2023-04-11T15:35:28.166Z,15.67
2023-04-11T15:38:07.646Z,15.67
2023-04-11T15:40:39.505Z,15.67
2023-04-11T15:43:10.461Z,15.66
2023-04-11T15:45:46.893Z,15.66
2023-04-11T15:48:18.360Z,15.64
2023-04-11T15:50:52.630Z,15.61
2023-04-11T15:53:27.556Z,15.56
2023-04-11T15:56:04.793Z,15.53
2023-04-11T15:58:35.845Z,15.48
2023-04-11T16:01:22.126Z,15.42
2023-04-11T16:03:57.344Z,15.37
2023-04-11T16:06:30.435Z,15.33
2023-04-11T16:09:01.657Z,15.28
2023-04-11T16:11:55.008Z,15.26
2023-04-11T16:14:27.980Z,15.25
2023-04-11T16:16:58.937Z,15.22
2023-04-11T16:19:34.044Z,15.20
2023-04-11T16:22:05.154Z,15.15
2023-04-11T16:24:38.698Z,15.12
2023-04-11T16:27:09.872Z,15.09
2023-04-11T16:29:41.992Z,15.06
2023-04-11T16:32:13.295Z,15.02
2023-04-11T16:34:44.241Z,14.97
2023-04-11T16:40:01.542Z,14.89
2023-04-11T16:42:36.469Z,14.85
2023-04-11T16:45:11.912Z,14.82
2023-04-11T16:47:44.697Z,14.79
2023-04-11T16:50:18.086Z,14.77
2023-04-11T16:52:51.917Z,14.77
2023-04-11T16:55:23.085Z,14.76
2023-04-11T16:57:56.374Z,14.74
2023-04-11T17:00:43.500Z,14.70
2023-04-11T17:03:14.882Z,14.67
2023-04-11T17:05:46.874Z,14.64
2023-04-11T17:08:21.058Z,14.61
2023-04-11T17:11:06.296Z,14.57
2023-04-11T17:13:39.453Z,14.53
2023-04-11T17:16:11.692Z,14.48
2023-04-11T17:18:43.921Z,14.44
2023-04-11T17:21:18.065Z,14.40
2023-04-11T17:23:50.430Z,14.37
2023-04-11T17:26:21.605Z,14.34
2023-04-11T17:28:54.109Z,14.32
2023-04-11T17:31:27.738Z,14.31
2023-04-11T17:34:06.672Z,14.27
2023-04-11T17:36:43.165Z,14.25
2023-04-11T17:39:18.121Z,14.23
2023-04-11T17:41:49.709Z,14.21
2023-04-11T17:44:20.857Z,14.19
2023-04-11T17:46:51.890Z,14.16
2023-04-11T17:49:27.511Z,14.14
2023-04-11T17:51:59.686Z,14.08
2023-04-11T17:54:31.088Z,14.04
2023-04-11T17:57:03.283Z,14.00
2023-04-11T17:59:34.827Z,13.95
2023-04-11T18:02:06.608Z,13.92
2023-04-11T18:04:37.808Z,13.89
2023-04-11T18:07:11.056Z,13.85
2023-04-11T18:09:44.783Z,13.81
2023-04-11T18:12:15.749Z,13.77
2023-04-11T18:14:48.705Z,13.74
2023-04-11T18:17:19.753Z,13.70
2023-04-11T18:19:50.811Z,13.65
2023-04-11T18:22:22.911Z,13.62
2023-04-11T18:24:57.127Z,13.59
2023-04-11T18:27:29.088Z,13.56
2023-04-11T18:30:00.736Z,13.52
2023-04-11T18:32:40.392Z,13.49
2023-04-11T18:35:13.346Z,13.46
2023-04-11T18:37:46.700Z,13.42
2023-04-11T18:40:22.946Z,13.38
2023-04-11T18:42:56.092Z,13.35
2023-04-11T18:45:28.264Z,13.32
2023-04-11T18:47:59.428Z,13.30
2023-04-11T18:50:30.883Z,13.26
2023-04-11T18:53:05.902Z,13.23
2023-04-11T18:55:40.373Z,13.20
2023-04-11T18:58:15.716Z,13.17
2023-04-11T19:00:49.564Z,13.13
2023-04-11T19:03:25.791Z,13.09
2023-04-11T19:05:57.818Z,13.05
2023-04-11T19:08:33.227Z,13.01
2023-04-11T19:11:03.042Z,12.97
2023-04-11T19:13:35.020Z,12.93
2023-04-11T19:16:06.737Z,12.88
2023-04-11T19:18:39.684Z,12.84
2023-04-11T19:21:12.897Z,12.80
2023-04-11T19:23:44.159Z,12.75
2023-04-11T19:26:16.256Z,12.70
2023-04-11T19:28:48.035Z,12.65
2023-04-11T19:31:19.125Z,12.60
2023-04-11T19:33:50.184Z,12.56
2023-04-11T19:36:22.556Z,12.51
2023-04-11T19:38:53.637Z,12.48
2023-04-11T19:41:24.752Z,12.46
2023-04-11T19:43:56.286Z,12.44
2023-04-11T19:46:27.747Z,12.42
2023-04-11T19:49:02.743Z,12.39
2023-04-11T19:51:33.750Z,12.35
2023-04-11T19:54:13.394Z,12.30
2023-04-11T19:56:50.687Z,12.24
2023-04-11T19:59:24.224Z,12.22
2023-04-11T20:01:59.644Z,12.19
2023-04-11T20:04:30.855Z,12.16
2023-04-11T20:07:04.537Z,12.12
2023-04-11T20:09:35.683Z,12.09
2023-04-11T20:12:20.293Z,12.05
2023-04-11T20:14:51.427Z,12.03
2023-04-11T20:17:22.519Z,12.01
2023-04-11T20:19:57.100Z,11.99
2023-04-11T20:22:28.468Z,11.99
2023-04-11T20:24:59.395Z,11.99
2023-04-11T20:27:30.492Z,12.00
2023-04-11T20:30:01.984Z,12.01
2023-04-11T20:32:32.954Z,12.02
2023-04-11T20:35:05.245Z,12.06
2023-04-11T20:37:37.523Z,12.08
2023-04-11T20:40:11.172Z,12.09
2023-04-11T20:42:47.739Z,12.10
2023-04-11T20:45:21.869Z,12.11
2023-04-11T20:51:02.822Z,12.16
2023-04-11T20:53:33.978Z,12.17
2023-04-11T20:56:05.440Z,12.19
2023-04-11T20:58:36.935Z,12.20
2023-04-11T21:01:09.364Z,12.19
2023-04-11T21:03:44.695Z,12.20
2023-04-11T21:06:16.557Z,12.21
2023-04-11T21:08:47.639Z,12.19
2023-04-11T21:11:21.078Z,12.19
2023-04-11T21:13:55.029Z,12.19
2023-04-11T21:16:34.018Z,12.19
2023-04-11T21:19:04.980Z,12.19
2023-04-11T21:21:38.226Z,12.18
2023-04-11T21:24:09.842Z,12.17
2023-04-11T21:26:41.563Z,12.16
2023-04-11T21:29:12.484Z,12.15
2023-04-11T21:31:43.474Z,12.15
2023-04-11T21:34:14.491Z,12.15
2023-04-11T21:36:45.454Z,12.14
2023-04-11T21:39:16.381Z,12.11
2023-04-11T21:41:47.322Z,12.08
2023-04-11T21:44:18.239Z,12.05
2023-04-11T21:46:49.218Z,12.01
2023-04-11T21:49:20.320Z,11.98
2023-04-11T21:51:51.266Z,11.97
2023-04-11T21:54:22.278Z,11.94
2023-04-11T21:56:53.182Z,11.90
2023-04-11T21:59:24.137Z,11.87
2023-04-11T22:01:55.315Z,11.84
2023-04-11T22:04:29.332Z,11.80
2023-04-11T22:07:00.695Z,11.78
2023-04-11T22:09:33.287Z,11.74
2023-04-11T22:12:04.810Z,11.70
2023-04-11T22:14:38.390Z,11.67
2023-04-11T22:17:09.975Z,11.64
2023-04-11T22:19:42.363Z,11.62
2023-04-11T22:22:13.263Z,11.59
2023-04-11T22:24:46.547Z,11.57
2023-04-11T22:27:18.318Z,11.53
2023-04-11T22:29:49.370Z,11.50
2023-04-11T22:32:20.522Z,11.45
2023-04-11T22:34:51.961Z,11.40
2023-04-11T22:37:22.858Z,11.34
2023-04-11T22:39:53.870Z,11.27
2023-04-11T22:42:24.977Z,11.18
2023-04-11T22:44:55.892Z,11.11
2023-04-11T22:47:28.777Z,11.03
2023-04-11T22:50:00.612Z,10.95
2023-04-11T22:52:31.568Z,10.89
2023-04-11T22:55:04.839Z,10.81
2023-04-11T22:57:36.950Z,10.73
2023-04-11T23:00:12.267Z,10.65
2023-04-11T23:02:41.610Z,10.58
2023-04-11T23:05:13.022Z,10.54
2023-04-11T23:07:43.946Z,10.49
2023-04-11T23:10:15.562Z,10.46
2023-04-11T23:12:47.482Z,10.44
2023-04-11T23:15:19.380Z,10.42
2023-04-11T23:17:50.482Z,10.40
2023-04-11T23:20:24.729Z,10.38
2023-04-11T23:22:55.677Z,10.37
2023-04-11T23:25:27.985Z,10.35
2023-04-11T23:27:58.978Z,10.35
2023-04-11T23:30:30.112Z,10.37
2023-04-11T23:33:02.250Z,10.38
2023-04-11T23:35:34.548Z,10.39
2023-04-11T23:38:06.266Z,10.39
2023-04-11T23:40:38.501Z,10.41
2023-04-11T23:43:09.465Z,10.43
2023-04-11T23:45:40.600Z,10.45
2023-04-11T23:48:11.758Z,10.45
2023-04-11T23:50:42.900Z,10.43
2023-04-11T23:53:13.934Z,10.42
2023-04-11T23:55:45.094Z,10.40
2023-04-11T23:58:16.003Z,10.39
